createdAt,value
2023-11-09T00:00:50.389Z,1.30
2023-11-09T00:01:50.329Z,1.50
2023-11-09T00:02:50.301Z,1.40
2023-11-09T00:03:50.319Z,1.30
2023-11-09T00:04:50.404Z,1.40
2023-11-09T00:05:50.265Z,1.40
2023-11-09T00:06:50.257Z,1.40
2023-11-09T00:07:50.209Z,1.60
2023-11-09T00:08:50.232Z,1.20
2023-11-09T00:09:50.241Z,1.20
2023-11-09T00:10:50.220Z,1.50
2023-11-09T00:11:50.180Z,1.40
2023-11-09T00:12:50.177Z,1.50
2023-11-09T00:13:50.142Z,1.60
2023-11-09T00:14:50.141Z,1.50
2023-11-09T00:15:50.207Z,1.40
2023-11-09T00:16:50.100Z,1.30
2023-11-09T00:17:50.194Z,1.30
2023-11-09T00:18:50.209Z,1.30
2023-11-09T00:19:50.236Z,1.40
2023-11-09T00:20:50.034Z,1.30
2023-11-09T00:21:50.094Z,1.30
2023-11-09T00:22:50.108Z,1.40
2023-11-09T00:23:50.051Z,1.00
2023-11-09T00:24:50.033Z,1.30
2023-11-09T00:25:49.979Z,1.30
2023-11-09T00:26:49.989Z,1.60
2023-11-09T00:27:50.046Z,1.20
2023-11-09T00:28:49.931Z,1.40
2023-11-09T00:29:49.940Z,1.40
2023-11-09T00:30:49.936Z,1.40
2023-11-09T00:31:49.929Z,1.20
2023-11-09T00:32:49.920Z,1.40
2023-11-09T00:33:50.029Z,1.40
2023-11-09T00:34:49.979Z,1.30
2023-11-09T00:35:49.867Z,1.40
2023-11-09T00:36:49.870Z,1.30
2023-11-09T00:37:49.876Z,1.50
2023-11-09T00:38:49.801Z,1.30
2023-11-09T00:39:49.863Z,1.30
2023-11-09T00:40:49.821Z,1.40
2023-11-09T00:41:49.759Z,1.40
2023-11-09T00:42:50.014Z,1.30
2023-11-09T00:43:49.759Z,1.20
2023-11-09T00:44:49.793Z,1.30
2023-11-09T00:45:49.782Z,1.40
2023-11-09T00:46:49.752Z,1.40
2023-11-09T00:47:49.748Z,1.20
2023-11-09T00:48:49.701Z,1.40
2023-11-09T00:49:49.662Z,1.30
2023-11-09T00:50:49.668Z,1.50
2023-11-09T00:51:49.627Z,1.40
2023-11-09T00:52:49.642Z,1.50
2023-11-09T00:53:49.608Z,1.70
2023-11-09T00:54:49.594Z,1.40
2023-11-09T00:55:49.576Z,1.50
2023-11-09T00:56:49.634Z,1.40
2023-11-09T00:57:49.568Z,1.30
2023-11-09T00:58:49.557Z,1.40
2023-11-09T00:59:49.580Z,1.50
2023-11-09T01:00:49.522Z,1.30
2023-11-09T01:01:49.567Z,1.50
2023-11-09T01:02:49.592Z,1.50
2023-11-09T01:03:49.530Z,1.40
2023-11-09T01:04:49.529Z,1.30
2023-11-09T01:05:49.494Z,1.40
2023-11-09T01:06:49.426Z,1.40
2023-11-09T01:07:49.448Z,1.20
2023-11-09T01:08:49.430Z,1.40
2023-11-09T01:09:49.416Z,1.50
2023-11-09T01:10:49.405Z,1.50
2023-11-09T01:11:49.431Z,1.50
2023-11-09T01:12:49.386Z,1.30
2023-11-09T01:13:49.348Z,1.20
2023-11-09T01:14:49.352Z,1.40
2023-11-09T01:15:49.358Z,1.40
2023-11-09T01:16:49.310Z,1.40
2023-11-09T01:17:49.322Z,1.20
2023-11-09T01:18:49.420Z,1.20
2023-11-09T01:19:49.369Z,1.30
2023-11-09T01:20:49.275Z,1.50
2023-11-09T01:21:49.279Z,1.30
2023-11-09T01:22:49.224Z,1.40
2023-11-09T01:23:49.241Z,1.20
2023-11-09T01:24:49.246Z,1.30
2023-11-09T01:25:49.186Z,1.30
2023-11-09T01:26:49.222Z,1.30
2023-11-09T01:27:49.187Z,1.30
2023-11-09T01:28:49.201Z,1.40
2023-11-09T01:29:49.212Z,1.30
2023-11-09T01:30:49.126Z,1.40
2023-11-09T01:31:49.141Z,1.10
2023-11-09T01:32:49.162Z,1.10
2023-11-09T01:33:49.106Z,1.30
2023-11-09T01:34:49.147Z,1.10
2023-11-09T01:35:49.052Z,1.20
2023-11-09T01:36:49.062Z,1.20
2023-11-09T01:37:49.064Z,1.20
2023-11-09T01:38:49.034Z,1.20
2023-11-09T01:39:49.080Z,1.30
2023-11-09T01:40:48.990Z,1.20
2023-11-09T01:41:48.976Z,1.30
2023-11-09T01:42:48.986Z,1.10
2023-11-09T01:43:48.947Z,1.10
2023-11-09T01:44:48.932Z,1.10
2023-11-09T01:45:48.943Z,1.70
2023-11-09T01:46:48.925Z,1.30
2023-11-09T01:47:48.949Z,1.30
2023-11-09T01:48:48.921Z,1.40
2023-11-09T01:49:48.958Z,1.40
2023-11-09T01:50:48.909Z,1.10
2023-11-09T01:51:48.876Z,1.30
2023-11-09T01:52:48.870Z,1.20
2023-11-09T01:53:48.829Z,1.30
2023-11-09T01:54:48.833Z,1.30
2023-11-09T01:55:48.821Z,1.30
2023-11-09T01:56:48.792Z,1.20
2023-11-09T01:57:48.792Z,1.30
2023-11-09T01:58:48.779Z,1.40
2023-11-09T01:59:48.763Z,1.40
2023-11-09T02:00:48.739Z,1.30
2023-11-09T02:01:48.721Z,1.40
2023-11-09T02:02:48.734Z,1.20
2023-11-09T02:03:48.715Z,1.40
2023-11-09T02:04:48.898Z,1.20
2023-11-09T02:05:48.706Z,1.40
2023-11-09T02:06:48.653Z,1.40
2023-11-09T02:07:48.661Z,1.30
2023-11-09T02:08:48.651Z,1.40
2023-11-09T02:09:48.639Z,1.30
2023-11-09T02:10:48.606Z,1.50
2023-11-09T02:11:48.603Z,1.20
2023-11-09T02:12:48.581Z,1.40
2023-11-09T02:13:48.556Z,1.30
2023-11-09T02:14:48.589Z,1.40
2023-11-09T02:15:48.586Z,1.50
2023-11-09T02:16:48.606Z,1.30
2023-11-09T02:17:48.528Z,1.20
2023-11-09T02:18:48.650Z,1.30
2023-11-09T02:19:48.489Z,1.30
2023-11-09T02:20:48.485Z,1.20
2023-11-09T02:21:48.446Z,1.20
2023-11-09T02:22:48.479Z,1.40
2023-11-09T02:23:48.429Z,1.60
2023-11-09T02:24:48.428Z,1.50
2023-11-09T02:25:48.419Z,1.30
2023-11-09T02:26:48.391Z,1.40
2023-11-09T02:27:48.419Z,1.20
2023-11-09T02:28:51.176Z,1.40
2023-11-09T02:29:48.412Z,1.20
2023-11-09T02:30:48.354Z,1.40
2023-11-09T02:31:48.352Z,1.40
2023-11-09T02:32:48.359Z,1.30
2023-11-09T02:33:48.323Z,1.30
2023-11-09T02:34:48.285Z,1.30
2023-11-09T02:35:48.326Z,1.40
2023-11-09T02:36:48.275Z,1.30
2023-11-09T02:37:48.275Z,1.50
2023-11-09T02:38:48.252Z,1.30
2023-11-09T02:39:48.242Z,1.40
2023-11-09T02:40:48.238Z,1.20
2023-11-09T02:41:48.203Z,1.30
2023-11-09T02:42:48.202Z,1.10
2023-11-09T02:43:48.169Z,1.20
2023-11-09T02:44:48.176Z,1.30
2023-11-09T02:45:48.140Z,1.20
2023-11-09T02:46:48.156Z,1.30
2023-11-09T02:47:48.156Z,1.50
2023-11-09T02:48:48.165Z,1.30
2023-11-09T02:49:48.111Z,1.20
2023-11-09T02:50:48.216Z,1.40
2023-11-09T02:51:48.081Z,1.00
2023-11-09T02:52:48.033Z,1.40
2023-11-09T02:53:48.063Z,1.20
2023-11-09T02:54:48.029Z,1.40
2023-11-09T02:55:48.010Z,1.00
2023-11-09T02:56:48.034Z,1.20
2023-11-09T02:57:47.998Z,1.30
2023-11-09T02:58:47.981Z,1.30
2023-11-09T02:59:47.964Z,1.20
2023-11-09T03:00:47.955Z,1.50
2023-11-09T03:01:47.918Z,1.30
2023-11-09T03:02:47.951Z,1.30
2023-11-09T03:03:47.889Z,1.20
2023-11-09T03:04:47.994Z,1.40
2023-11-09T03:05:47.886Z,1.30
2023-11-09T03:06:47.894Z,1.20
2023-11-09T03:07:47.869Z,1.30
2023-11-09T03:08:47.829Z,1.20
2023-11-09T03:09:47.838Z,1.00
2023-11-09T03:10:47.794Z,1.30
2023-11-09T03:11:47.802Z,1.30
2023-11-09T03:12:47.783Z,1.30
2023-11-09T03:13:47.787Z,1.10
2023-11-09T03:14:47.759Z,1.30
2023-11-09T03:15:47.766Z,1.50
2023-11-09T03:16:47.725Z,1.30
2023-11-09T03:17:47.827Z,1.30
2023-11-09T03:18:47.719Z,1.30
2023-11-09T03:19:47.690Z,1.30
2023-11-09T03:20:47.674Z,1.30
2023-11-09T03:21:47.675Z,1.20
2023-11-09T03:22:47.682Z,1.30
2023-11-09T03:23:47.646Z,1.20
2023-11-09T03:24:47.652Z,1.30
2023-11-09T03:25:47.641Z,1.30
2023-11-09T03:26:47.659Z,1.40
2023-11-09T03:27:47.575Z,1.30
2023-11-09T03:28:47.597Z,1.30
2023-11-09T03:29:47.548Z,1.20
2023-11-09T03:30:47.628Z,1.50
2023-11-09T03:31:47.552Z,1.20
2023-11-09T03:32:47.559Z,1.20
2023-11-09T03:33:47.555Z,1.20
2023-11-09T03:34:47.511Z,1.40
2023-11-09T03:35:47.497Z,1.50
2023-11-09T03:36:47.492Z,1.20
2023-11-09T03:37:47.476Z,1.40
2023-11-09T03:38:47.433Z,1.30
2023-11-09T03:39:47.453Z,1.20
2023-11-09T03:40:47.420Z,1.30
2023-11-09T03:41:47.403Z,1.30
2023-11-09T03:42:47.401Z,1.30
2023-11-09T03:43:47.399Z,1.40
2023-11-09T03:44:47.382Z,1.40
2023-11-09T03:45:47.369Z,1.50
2023-11-09T03:46:47.462Z,1.40
2023-11-09T03:47:47.424Z,1.10
2023-11-09T03:48:47.308Z,1.10
2023-11-09T03:49:47.302Z,1.10
2023-11-09T03:50:47.322Z,0.90
2023-11-09T03:51:47.304Z,0.90
2023-11-09T03:52:47.243Z,1.00
2023-11-09T03:53:47.264Z,1.30
2023-11-09T03:54:47.247Z,1.20
2023-11-09T03:55:47.234Z,0.80
2023-11-09T03:56:47.206Z,1.00
2023-11-09T03:57:47.209Z,1.00
2023-11-09T03:58:47.175Z,1.10
2023-11-09T03:59:47.171Z,1.10
2023-11-09T04:00:54.903Z,1.00
2023-11-09T04:03:48.119Z,1.10
2023-11-09T04:04:48.115Z,0.90
2023-11-09T04:05:48.055Z,1.10
2023-11-09T04:06:48.004Z,1.10
2023-11-09T04:07:47.993Z,1.10
2023-11-09T04:08:48.025Z,0.80
2023-11-09T04:09:47.998Z,1.20
2023-11-09T04:10:47.975Z,1.00
2023-11-09T04:11:47.962Z,0.90
2023-11-09T04:12:47.945Z,0.90
2023-11-09T04:13:47.951Z,0.90
2023-11-09T04:14:48.639Z,1.00
2023-11-09T04:15:47.905Z,0.80
2023-11-09T04:16:47.907Z,1.00
2023-11-09T04:17:48.006Z,1.00
2023-11-09T04:18:47.923Z,0.90
2023-11-09T04:19:48.645Z,1.00
2023-11-09T04:20:47.853Z,1.10
2023-11-09T04:21:47.839Z,0.90
2023-11-09T04:22:47.802Z,1.00
2023-11-09T04:23:54.885Z,1.10
2023-11-09T04:24:48.608Z,1.00
2023-11-09T04:25:47.765Z,0.90
2023-11-09T04:26:47.753Z,1.10
2023-11-09T04:27:47.732Z,1.00
2023-11-09T04:28:47.779Z,1.20
2023-11-09T04:29:47.707Z,1.10
2023-11-09T04:32:38.036Z,1.10
2023-11-09T04:33:37.733Z,1.20
2023-11-09T04:34:37.748Z,1.00
2023-11-09T04:35:37.666Z,0.90
2023-11-09T04:36:37.603Z,1.00
2023-11-09T04:37:37.618Z,0.90
2023-11-09T04:38:37.609Z,0.90
2023-11-09T04:39:37.591Z,1.00
2023-11-09T04:40:37.614Z,1.00
2023-11-09T04:41:37.562Z,0.90
2023-11-09T04:42:37.520Z,1.00
2023-11-09T04:43:37.518Z,1.00
2023-11-09T04:44:37.519Z,1.20
2023-11-09T04:45:37.477Z,1.00
2023-11-09T04:46:37.534Z,1.00
2023-11-09T04:47:37.484Z,1.00
2023-11-09T04:48:37.464Z,0.90
2023-11-09T04:49:37.462Z,0.80
2023-11-09T04:50:37.435Z,1.00
2023-11-09T04:51:37.399Z,1.00
2023-11-09T04:52:37.436Z,1.00
2023-11-09T04:53:37.389Z,0.90
2023-11-09T04:54:37.389Z,1.00
2023-11-09T04:55:37.408Z,0.90
2023-11-09T04:56:37.338Z,0.80
2023-11-09T04:57:37.327Z,1.00
2023-11-09T04:58:37.342Z,1.00
2023-11-09T04:59:37.303Z,1.00
2023-11-09T05:00:37.298Z,0.90
2023-11-09T05:01:37.307Z,0.90
2023-11-09T05:02:37.313Z,0.90
2023-11-09T05:03:37.405Z,1.00
2023-11-09T05:04:37.293Z,0.80
2023-11-09T05:05:37.268Z,1.00
2023-11-09T05:06:37.215Z,0.80
2023-11-09T05:07:37.276Z,0.90
2023-11-09T05:08:37.210Z,1.20
2023-11-09T05:09:37.178Z,1.00
2023-11-09T05:10:37.194Z,1.00
2023-11-09T05:11:37.154Z,1.00
2023-11-09T05:12:37.138Z,1.00
2023-11-09T05:13:37.160Z,1.00
2023-11-09T05:14:37.101Z,0.80
2023-11-09T05:15:37.110Z,0.90
2023-11-09T05:16:37.122Z,0.90
2023-11-09T05:17:37.121Z,1.00
2023-11-09T05:18:37.067Z,1.10
2023-11-09T05:19:37.057Z,1.00
2023-11-09T05:20:37.024Z,1.20
2023-11-09T05:21:37.049Z,1.00
2023-11-09T05:22:37.019Z,1.30
2023-11-09T05:23:36.999Z,1.20
2023-11-09T05:24:36.983Z,1.20
2023-11-09T05:25:36.973Z,1.20
2023-11-09T05:26:36.947Z,1.20
2023-11-09T05:27:36.957Z,1.20
2023-11-09T05:28:36.947Z,1.10
2023-11-09T05:29:36.939Z,1.10
2023-11-09T05:30:36.902Z,1.10
2023-11-09T05:31:37.112Z,1.00
2023-11-09T05:32:39.066Z,1.20
2023-11-09T05:33:36.935Z,1.20
2023-11-09T05:34:36.890Z,1.10
2023-11-09T05:35:36.836Z,1.20
2023-11-09T05:36:36.839Z,1.00
2023-11-09T05:37:36.818Z,1.10
2023-11-09T05:38:36.814Z,1.00
2023-11-09T05:39:36.782Z,1.10
2023-11-09T05:40:36.796Z,1.10
2023-11-09T05:41:36.757Z,0.90
2023-11-09T05:42:36.742Z,1.10
2023-11-09T05:43:36.757Z,0.90
2023-11-09T05:44:36.817Z,1.10
2023-11-09T05:45:36.706Z,1.20
2023-11-09T05:46:36.708Z,0.90
2023-11-09T05:47:36.702Z,1.10
2023-11-09T05:48:36.707Z,1.10
2023-11-09T05:49:36.703Z,1.00
2023-11-09T05:50:36.665Z,1.20
2023-11-09T05:51:36.629Z,1.20
2023-11-09T05:52:36.631Z,1.20
2023-11-09T05:53:36.613Z,1.30
2023-11-09T05:54:36.600Z,1.20
2023-11-09T05:55:36.667Z,1.10
2023-11-09T05:56:36.566Z,1.30
2023-11-09T05:57:36.544Z,1.20
2023-11-09T05:58:36.599Z,1.10
2023-11-09T05:59:36.528Z,1.20
2023-11-09T06:00:36.530Z,1.00
2023-11-09T06:01:36.523Z,1.10
2023-11-09T06:02:36.489Z,1.10
2023-11-09T06:03:36.513Z,0.90
2023-11-09T06:04:36.645Z,0.90
2023-11-09T06:05:36.467Z,1.00
2023-11-09T06:06:36.451Z,0.90
2023-11-09T06:07:36.603Z,1.10
2023-11-09T06:08:36.406Z,1.00
2023-11-09T06:09:36.436Z,1.00
2023-11-09T06:10:36.409Z,1.00
2023-11-09T06:11:36.868Z,1.00
2023-11-09T06:12:36.372Z,0.90
2023-11-09T06:13:36.361Z,1.20
2023-11-09T06:14:36.326Z,0.90
2023-11-09T06:15:36.346Z,1.00
2023-11-09T06:16:36.317Z,1.10
2023-11-09T06:17:36.372Z,1.20
2023-11-09T06:18:36.347Z,1.10
2023-11-09T06:19:36.290Z,0.90
2023-11-09T06:20:36.255Z,0.80
2023-11-09T06:21:36.231Z,1.10
2023-11-09T06:22:36.252Z,0.70
2023-11-09T06:23:36.210Z,0.90
2023-11-09T06:24:36.228Z,0.90
2023-11-09T06:25:36.284Z,1.00
2023-11-09T06:26:36.170Z,1.00
2023-11-09T06:27:36.162Z,1.30
2023-11-09T06:28:36.176Z,1.00
2023-11-09T06:29:36.140Z,1.10
2023-11-09T06:30:36.126Z,0.90
2023-11-09T06:31:36.167Z,1.10
2023-11-09T06:32:36.320Z,1.00
2023-11-09T06:33:36.137Z,0.80
2023-11-09T06:34:36.172Z,1.40
2023-11-09T06:35:36.076Z,1.00
2023-11-09T06:36:36.049Z,1.20
2023-11-09T06:37:36.134Z,1.00
2023-11-09T06:38:36.041Z,1.10
2023-11-09T06:39:36.009Z,1.00
2023-11-09T06:40:36.017Z,1.00
2023-11-09T06:41:35.988Z,1.10
2023-11-09T06:42:35.969Z,1.00
2023-11-09T06:43:36.111Z,1.10
2023-11-09T06:44:35.946Z,1.00
2023-11-09T06:45:35.939Z,0.90
2023-11-09T06:46:35.945Z,1.20
2023-11-09T06:47:35.944Z,1.20
2023-11-09T06:48:35.904Z,1.10
2023-11-09T06:49:36.002Z,1.20
2023-11-09T06:50:35.867Z,1.20
2023-11-09T06:51:35.862Z,1.20
2023-11-09T06:52:36.387Z,1.10
2023-11-09T06:53:35.824Z,1.20
2023-11-09T06:54:35.828Z,1.00
2023-11-09T06:55:35.891Z,1.10
2023-11-09T06:56:35.830Z,1.20
2023-11-09T06:57:35.774Z,1.20
2023-11-09T06:58:35.809Z,1.00
2023-11-09T06:59:35.755Z,1.10
2023-11-09T07:00:35.764Z,1.10
2023-11-09T07:01:35.768Z,1.20
2023-11-09T07:02:35.776Z,1.20
2023-11-09T07:03:35.689Z,1.10
2023-11-09T07:04:35.830Z,1.10
2023-11-09T07:05:35.767Z,1.10
2023-11-09T07:06:35.692Z,1.00
2023-11-09T07:07:35.669Z,1.10
2023-11-09T07:08:35.647Z,1.10
2023-11-09T07:09:35.624Z,1.10
2023-11-09T07:10:35.716Z,1.00
2023-11-09T07:11:38.371Z,1.10
2023-11-09T07:12:35.599Z,0.90
2023-11-09T07:13:35.590Z,1.00
2023-11-09T07:14:35.552Z,1.10
2023-11-09T07:15:35.542Z,0.80
2023-11-09T07:16:35.573Z,1.10
2023-11-09T07:17:35.534Z,1.10
2023-11-09T07:18:35.555Z,1.10
2023-11-09T07:19:35.534Z,1.00
2023-11-09T07:20:35.485Z,1.10
2023-11-09T07:21:35.496Z,1.10
2023-11-09T07:22:35.532Z,1.10
2023-11-09T07:23:36.191Z,1.00
2023-11-09T07:24:35.425Z,1.10
2023-11-09T07:25:35.434Z,1.10
2023-11-09T07:26:35.412Z,1.10
2023-11-09T07:27:35.416Z,1.10
2023-11-09T07:28:35.413Z,1.00
2023-11-09T07:29:35.382Z,0.90
2023-11-09T07:30:35.359Z,1.00
2023-11-09T07:31:35.404Z,1.00
2023-11-09T07:32:35.330Z,1.10
2023-11-09T07:33:35.402Z,1.10
2023-11-09T07:34:35.384Z,1.00
2023-11-09T07:35:35.324Z,1.20
2023-11-09T07:36:35.272Z,1.20
2023-11-09T07:37:35.303Z,1.00
2023-11-09T07:38:35.245Z,1.00
2023-11-09T07:39:35.242Z,1.10
2023-11-09T07:40:35.229Z,1.10
2023-11-09T07:41:35.229Z,1.00
2023-11-09T07:42:35.196Z,1.10
2023-11-09T07:43:35.230Z,1.00
2023-11-09T07:44:35.173Z,1.00
2023-11-09T07:45:35.169Z,1.10
2023-11-09T07:46:35.160Z,1.00
2023-11-09T07:47:35.171Z,0.90
2023-11-09T07:48:35.154Z,0.90
2023-11-09T07:49:35.185Z,0.90
2023-11-09T07:50:35.087Z,1.00
2023-11-09T07:51:35.074Z,0.90
2023-11-09T07:52:35.444Z,0.80
2023-11-09T07:53:35.063Z,0.70
2023-11-09T07:54:35.048Z,1.00
2023-11-09T07:55:35.049Z,1.10
2023-11-09T07:56:35.015Z,0.80
2023-11-09T07:57:34.999Z,0.80
2023-11-09T07:58:35.068Z,1.20
2023-11-09T07:59:34.974Z,0.90
2023-11-09T08:00:34.957Z,0.90
2023-11-09T08:01:34.984Z,1.10
2023-11-09T08:02:34.996Z,0.90
2023-11-09T08:03:34.989Z,1.00
2023-11-09T08:04:36.058Z,0.90
2023-11-09T08:05:34.918Z,0.90
2023-11-09T08:06:34.893Z,0.80
2023-11-09T08:07:34.906Z,0.80
2023-11-09T08:08:34.908Z,0.90
2023-11-09T08:09:34.852Z,0.90
2023-11-09T08:10:34.866Z,1.00
2023-11-09T08:11:34.843Z,1.00
2023-11-09T08:12:36.931Z,0.80
2023-11-09T08:13:34.851Z,0.90
2023-11-09T08:14:34.794Z,0.80
2023-11-09T08:15:34.782Z,0.90
2023-11-09T08:16:34.816Z,0.90
2023-11-09T08:17:34.802Z,0.80
2023-11-09T08:18:34.767Z,0.90
2023-11-09T08:19:34.764Z,0.80
2023-11-09T08:20:35.433Z,0.80
2023-11-09T08:21:34.697Z,0.80
2023-11-09T08:22:34.702Z,0.70
2023-11-09T08:23:34.657Z,0.80
2023-11-09T08:24:34.673Z,0.90
2023-11-09T08:25:34.666Z,0.80
2023-11-09T08:26:34.636Z,0.90
2023-11-09T08:27:34.613Z,0.60
2023-11-09T08:28:34.710Z,0.70
2023-11-09T08:29:34.581Z,0.70
2023-11-09T08:30:34.600Z,0.90
2023-11-09T08:31:34.676Z,0.70
2023-11-09T08:32:34.691Z,0.70
2023-11-09T08:33:34.606Z,0.80
2023-11-09T08:34:34.581Z,0.80
2023-11-09T08:35:34.537Z,0.80
2023-11-09T08:36:34.492Z,0.90
2023-11-09T08:37:34.541Z,0.80
2023-11-09T08:38:34.538Z,0.90
2023-11-09T08:39:34.460Z,0.90
2023-11-09T08:40:34.513Z,0.80
2023-11-09T08:41:34.442Z,0.80
2023-11-09T08:42:34.421Z,0.70
2023-11-09T08:43:34.422Z,0.70
2023-11-09T08:44:36.258Z,0.90
2023-11-09T08:45:34.378Z,0.80
2023-11-09T08:46:34.407Z,0.80
2023-11-09T08:47:34.409Z,0.70
2023-11-09T08:48:34.373Z,1.00
2023-11-09T08:49:35.147Z,0.80
2023-11-09T08:50:34.375Z,0.90
2023-11-09T08:51:34.297Z,0.80
2023-11-09T08:52:34.320Z,0.80
2023-11-09T08:53:34.273Z,0.80
2023-11-09T08:54:34.266Z,1.00
2023-11-09T08:55:34.281Z,1.00
2023-11-09T08:56:34.290Z,0.90
2023-11-09T08:57:34.225Z,0.90
2023-11-09T08:58:34.244Z,0.80
2023-11-09T08:59:35.541Z,0.90
2023-11-09T09:00:34.212Z,0.80
2023-11-09T09:01:34.233Z,0.70
2023-11-09T09:02:34.231Z,0.80
2023-11-09T09:03:34.241Z,1.00
2023-11-09T09:04:34.159Z,0.90
2023-11-09T09:05:34.147Z,1.00
2023-11-09T09:06:34.132Z,1.00
2023-11-09T09:07:34.160Z,1.00
2023-11-09T09:08:34.094Z,0.90
2023-11-09T09:09:41.728Z,1.10
2023-11-09T09:10:35.085Z,1.10
2023-11-09T09:11:34.050Z,0.90
2023-11-09T09:12:34.104Z,1.60
2023-11-09T09:13:34.043Z,1.10
2023-11-09T09:14:34.035Z,1.30
2023-11-09T09:15:34.136Z,1.10
2023-11-09T09:16:34.126Z,1.20
2023-11-09T09:17:34.095Z,1.00
2023-11-09T09:18:34.060Z,1.50
2023-11-09T09:19:35.222Z,1.30
2023-11-09T09:20:34.094Z,1.20
2023-11-09T09:21:33.988Z,1.40
2023-11-09T09:22:33.958Z,1.40
2023-11-09T09:23:33.884Z,1.30
2023-11-09T09:24:33.913Z,1.50
2023-11-09T09:25:33.988Z,1.60
2023-11-09T09:26:33.869Z,1.40
2023-11-09T09:27:33.834Z,1.20
2023-11-09T09:28:33.837Z,1.40
2023-11-09T09:29:33.865Z,1.60
2023-11-09T09:30:33.815Z,1.40
2023-11-09T09:31:33.814Z,1.50
2023-11-09T09:32:33.842Z,1.60
2023-11-09T09:33:33.768Z,1.60
2023-11-09T09:34:33.807Z,1.60
2023-11-09T09:35:39.605Z,1.60
2023-11-09T09:36:34.717Z,1.60
2023-11-09T09:37:33.764Z,1.80
2023-11-09T09:38:33.697Z,1.40
2023-11-09T09:39:33.691Z,1.40
2023-11-09T09:40:43.624Z,1.50
2023-11-09T09:41:34.661Z,1.40
2023-11-09T09:42:33.640Z,1.30
2023-11-09T09:43:33.687Z,1.60
2023-11-09T09:44:33.617Z,1.30
2023-11-09T09:45:33.611Z,1.30
2023-11-09T09:46:33.741Z,1.30
2023-11-09T09:47:33.597Z,1.40
2023-11-09T09:48:33.618Z,1.30
2023-11-09T09:49:33.620Z,1.40
2023-11-09T09:50:33.586Z,1.20
2023-11-09T09:51:33.550Z,1.30
2023-11-09T09:52:33.604Z,1.30
2023-11-09T09:53:42.316Z,1.60
2023-11-09T09:54:33.490Z,1.10
2023-11-09T09:55:33.522Z,1.30
2023-11-09T09:56:33.474Z,1.10
2023-11-09T09:57:33.460Z,1.30
2023-11-09T09:58:33.519Z,1.20
2023-11-09T09:59:33.440Z,1.60
2023-11-09T10:00:33.420Z,1.30
2023-11-09T10:01:33.451Z,1.50
2023-11-09T10:02:33.460Z,1.20
2023-11-09T10:03:34.317Z,1.40
2023-11-09T10:04:33.446Z,1.30
2023-11-09T10:05:33.496Z,1.50
2023-11-09T10:06:33.331Z,1.20
2023-11-09T10:08:37.046Z,1.40
2023-11-09T10:09:37.031Z,1.40
2023-11-09T10:10:37.032Z,1.30
2023-11-09T10:11:37.013Z,1.20
2023-11-09T10:12:36.976Z,1.50
2023-11-09T10:13:37.181Z,1.20
2023-11-09T10:14:36.986Z,1.50
2023-11-09T10:15:36.929Z,1.40
2023-11-09T10:16:36.925Z,1.60
2023-11-09T10:17:36.947Z,1.60
2023-11-09T10:18:36.953Z,1.40
2023-11-09T10:19:36.905Z,1.50
2023-11-09T10:20:36.890Z,1.60
2023-11-09T10:21:36.849Z,1.10
2023-11-09T10:22:36.947Z,1.80
2023-11-09T10:23:36.850Z,1.60
2023-11-09T10:24:36.813Z,1.90
2023-11-09T10:25:36.850Z,1.40
2023-11-09T10:26:36.789Z,1.50
2023-11-09T10:27:36.804Z,1.50
2023-11-09T10:28:36.791Z,1.60
2023-11-09T10:29:36.751Z,1.60
2023-11-09T10:30:36.768Z,1.50
2023-11-09T10:31:36.807Z,1.40
2023-11-09T10:32:36.798Z,1.50
2023-11-09T10:33:36.935Z,1.60
2023-11-09T10:34:36.718Z,1.40
2023-11-09T10:35:36.701Z,1.60
2023-11-09T10:36:36.677Z,1.40
2023-11-09T10:37:36.682Z,1.70
2023-11-09T10:38:36.634Z,1.30
2023-11-09T10:39:36.624Z,1.60
2023-11-09T10:40:36.709Z,1.80
2023-11-09T10:41:54.283Z,1.70
2023-11-09T10:42:38.760Z,1.50
2023-11-09T10:43:37.660Z,1.60
2023-11-09T10:44:36.556Z,1.60
2023-11-09T10:45:36.545Z,2.00
2023-11-09T10:46:36.628Z,1.90
2023-11-09T10:47:36.576Z,1.60
2023-11-09T10:48:36.608Z,1.60
2023-11-09T10:49:36.570Z,1.90
2023-11-09T10:50:36.481Z,3.00
2023-11-09T10:51:36.471Z,3.20
2023-11-09T10:52:36.560Z,3.60
2023-11-09T10:53:36.440Z,2.40
2023-11-09T10:54:36.437Z,2.40
2023-11-09T10:55:36.471Z,2.20
2023-11-09T10:56:36.425Z,2.50
2023-11-09T10:57:36.404Z,2.10
2023-11-09T10:58:36.403Z,2.20
2023-11-09T10:59:36.416Z,2.10
2023-11-09T11:00:36.366Z,2.20
2023-11-09T11:01:36.380Z,2.10
2023-11-09T11:02:36.355Z,1.90
2023-11-09T11:03:36.437Z,1.90
2023-11-09T11:04:36.355Z,1.80
2023-11-09T11:05:36.313Z,2.00
2023-11-09T11:06:36.285Z,1.90
2023-11-09T11:07:40.440Z,1.80
2023-11-09T11:08:37.264Z,2.10
2023-11-09T11:09:36.229Z,1.90
2023-11-09T11:10:36.262Z,1.70
2023-11-09T11:11:36.213Z,2.00
2023-11-09T11:12:36.202Z,1.50
2023-11-09T11:13:36.394Z,1.80
2023-11-09T11:14:36.221Z,2.00
2023-11-09T11:15:36.155Z,1.90
2023-11-09T11:16:36.168Z,1.80
2023-11-09T11:17:36.199Z,2.40
2023-11-09T11:18:36.209Z,1.80
2023-11-09T11:19:36.255Z,1.90
2023-11-09T11:20:36.104Z,2.00
2023-11-09T11:21:36.084Z,1.80
2023-11-09T11:22:36.105Z,1.80
2023-11-09T11:23:36.080Z,1.90
2023-11-09T11:24:36.041Z,2.40
2023-11-09T11:25:36.104Z,1.90
2023-11-09T11:26:52.964Z,1.90
2023-11-09T11:27:37.008Z,1.90
2023-11-09T11:28:36.017Z,2.00
2023-11-09T11:29:36.922Z,1.80
2023-11-09T11:30:35.995Z,1.80
2023-11-09T11:31:35.989Z,1.70
2023-11-09T11:32:35.952Z,1.70
2023-11-09T11:33:35.935Z,1.90
2023-11-09T11:34:35.928Z,1.90
2023-11-09T11:35:35.909Z,1.80
2023-11-09T11:36:35.882Z,1.80
2023-11-09T11:37:36.649Z,1.80
2023-11-09T11:38:35.875Z,2.10
2023-11-09T11:39:35.873Z,2.00
2023-11-09T11:40:35.890Z,1.90
2023-11-09T11:41:35.836Z,2.30
2023-11-09T11:42:36.156Z,2.40
2023-11-09T11:43:35.919Z,2.60
2023-11-09T11:44:43.909Z,2.30
2023-11-09T11:45:36.833Z,2.60
2023-11-09T11:46:35.817Z,2.80
2023-11-09T11:47:35.826Z,2.20
2023-11-09T11:48:35.781Z,2.20
2023-11-09T11:49:35.891Z,2.50
2023-11-09T11:50:35.710Z,2.30
2023-11-09T11:51:35.718Z,2.60
2023-11-09T11:52:35.998Z,2.40
2023-11-09T11:53:35.822Z,2.30
2023-11-09T11:54:35.693Z,2.50
2023-11-09T11:55:36.852Z,2.30
2023-11-09T11:56:35.720Z,2.10
2023-11-09T11:57:35.889Z,2.10
2023-11-09T11:58:35.735Z,2.20
2023-11-09T11:59:35.611Z,2.00
2023-11-09T12:00:35.573Z,2.30
2023-11-09T12:01:35.953Z,2.10
2023-11-09T12:02:35.555Z,1.90
2023-11-09T12:03:35.568Z,2.10
2023-11-09T12:04:35.652Z,2.30
2023-11-09T12:05:35.557Z,2.40
2023-11-09T12:06:35.536Z,2.20
2023-11-09T12:07:35.640Z,1.90
2023-11-09T12:08:35.466Z,2.10
2023-11-09T12:09:35.457Z,2.20
2023-11-09T12:10:35.474Z,2.00
2023-11-09T12:11:35.528Z,2.10
2023-11-09T12:12:35.415Z,2.00
2023-11-09T12:13:35.670Z,2.50
2023-11-09T12:14:35.416Z,2.40
2023-11-09T12:15:35.388Z,2.20
2023-11-09T12:16:35.402Z,1.90
2023-11-09T12:17:35.398Z,2.10
2023-11-09T12:18:35.376Z,2.20
2023-11-09T12:19:35.388Z,2.20
2023-11-09T12:20:36.056Z,2.40
2023-11-09T12:21:35.336Z,2.30
2023-11-09T12:22:35.402Z,2.10
2023-11-09T12:23:35.321Z,2.60
2023-11-09T12:24:35.316Z,2.40
2023-11-09T12:25:36.043Z,2.40
2023-11-09T12:26:35.236Z,2.00
2023-11-09T12:27:35.265Z,2.30
2023-11-09T12:28:35.223Z,2.30
2023-11-09T12:29:35.207Z,2.20
2023-11-09T12:30:35.195Z,2.20
2023-11-09T12:31:35.219Z,2.50
2023-11-09T12:32:35.204Z,2.10
2023-11-09T12:33:35.221Z,2.10
2023-11-09T12:34:35.156Z,2.00
2023-11-09T12:35:35.134Z,2.40
2023-11-09T12:36:35.111Z,2.10
2023-11-09T12:37:35.354Z,2.00
2023-11-09T12:38:35.216Z,2.20
2023-11-09T12:39:35.142Z,2.20
2023-11-09T12:40:35.108Z,1.70
2023-11-09T12:41:35.059Z,2.00
2023-11-09T12:42:35.081Z,2.20
2023-11-09T12:43:35.079Z,2.40
2023-11-09T12:44:35.010Z,2.30
2023-11-09T12:45:35.029Z,2.10
2023-11-09T12:46:35.022Z,1.80
2023-11-09T12:47:34.992Z,2.50
2023-11-09T12:48:35.071Z,2.10
2023-11-09T12:49:34.989Z,2.30
2023-11-09T12:50:34.929Z,2.20
2023-11-09T12:51:34.994Z,2.30
2023-11-09T12:52:34.930Z,2.10
2023-11-09T12:53:34.897Z,2.30
2023-11-09T12:54:37.026Z,2.10
2023-11-09T12:55:34.888Z,2.60
2023-11-09T12:56:36.350Z,2.20
2023-11-09T12:57:34.862Z,2.60
2023-11-09T12:58:34.862Z,2.10
2023-11-09T12:59:34.835Z,2.20
2023-11-09T13:00:34.818Z,2.00
2023-11-09T13:01:34.842Z,1.90
2023-11-09T13:02:34.822Z,2.00
2023-11-09T13:03:34.813Z,2.10
2023-11-09T13:04:34.802Z,2.20
2023-11-09T13:05:34.809Z,2.30
2023-11-09T13:06:34.723Z,2.10
2023-11-09T13:07:34.764Z,2.00
2023-11-09T13:08:34.763Z,1.90
2023-11-09T13:09:34.691Z,2.20
2023-11-09T13:10:35.848Z,1.90
2023-11-09T13:11:34.671Z,2.30
2023-11-09T13:12:34.693Z,2.00
2023-11-09T13:13:34.659Z,2.50
2023-11-09T13:14:34.644Z,2.10
2023-11-09T13:15:34.627Z,1.90
2023-11-09T13:16:34.618Z,2.60
2023-11-09T13:17:34.614Z,2.40
2023-11-09T13:18:34.629Z,2.20
2023-11-09T13:19:34.616Z,2.10
2023-11-09T13:20:34.610Z,1.90
2023-11-09T13:21:34.546Z,1.90
2023-11-09T13:22:34.545Z,2.00
2023-11-09T13:23:34.650Z,1.90